createdAt,value
2023-01-07T00:02:05.010Z,7.11
2023-01-07T00:04:36.741Z,7.13
2023-01-07T00:07:09.925Z,7.13
2023-01-07T00:09:42.784Z,7.14
2023-01-07T00:12:14.672Z,7.12
2023-01-07T00:14:46.648Z,7.07
2023-01-07T00:17:18.388Z,7.03
2023-01-07T00:19:50.138Z,6.99
2023-01-07T00:22:21.789Z,6.94
2023-01-07T00:24:53.695Z,6.86
2023-01-07T00:27:25.609Z,6.79
2023-01-07T00:29:57.303Z,6.73
2023-01-07T00:32:50.937Z,6.71
2023-01-07T00:35:23.452Z,6.70
2023-01-07T00:37:56.130Z,6.69
2023-01-07T00:40:28.095Z,6.69
2023-01-07T00:43:02.463Z,6.69
2023-01-07T00:45:36.468Z,6.64
2023-01-07T00:48:08.797Z,6.61
2023-01-07T00:50:41.291Z,6.53
2023-01-07T00:53:13.591Z,6.45
2023-01-07T00:55:45.299Z,6.39
2023-01-07T00:58:26.720Z,6.30
2023-01-07T01:01:00.172Z,6.22
2023-01-07T01:03:33.485Z,6.14
2023-01-07T01:06:07.862Z,6.09
2023-01-07T01:08:41.313Z,6.10
2023-01-07T01:11:14.968Z,6.14
2023-01-07T01:13:45.844Z,6.20
2023-01-07T01:16:19.215Z,6.25
2023-01-07T01:18:50.898Z,6.32
2023-01-07T01:21:22.612Z,6.37
2023-01-07T01:23:54.568Z,6.42
2023-01-07T01:26:26.538Z,6.45
2023-01-07T01:28:58.641Z,6.46
2023-01-07T01:31:30.560Z,6.45
2023-01-07T01:34:02.325Z,6.47
2023-01-07T01:36:34.263Z,6.48
2023-01-07T01:39:06.206Z,6.48
2023-01-07T01:41:38.384Z,6.48
2023-01-07T01:44:41.414Z,6.51
2023-01-07T01:47:20.754Z,6.57
2023-01-07T01:49:59.589Z,6.60
2023-01-07T01:52:38.663Z,6.59
2023-01-07T01:55:14.839Z,6.63
2023-01-07T01:57:48.116Z,6.71
2023-01-07T02:00:20.352Z,6.74
2023-01-07T02:02:56.861Z,6.77
2023-01-07T02:05:43.212Z,6.74
2023-01-07T02:08:21.968Z,6.70
2023-01-07T02:11:12.404Z,6.63
2023-01-07T02:13:59.376Z,6.58
2023-01-07T02:16:42.699Z,6.51
2023-01-07T02:20:09.490Z,6.43
2023-01-07T02:23:23.933Z,6.37
2023-01-07T02:26:13.831Z,6.38
2023-01-07T02:29:09.894Z,6.36
2023-01-07T02:32:04.217Z,6.32
2023-01-07T02:34:46.835Z,6.29
2023-01-07T02:37:27.777Z,6.28
2023-01-07T02:40:07.662Z,6.30
2023-01-07T02:42:46.911Z,6.30
2023-01-07T02:45:28.384Z,6.25
2023-01-07T02:48:03.358Z,6.19
2023-01-07T02:50:35.284Z,6.14
2023-01-07T02:53:09.205Z,6.11
2023-01-07T02:55:48.582Z,6.06
2023-01-07T02:59:03.508Z,5.98
2023-01-07T03:01:57.460Z,5.92
2023-01-07T03:04:51.380Z,5.88
2023-01-07T03:07:38.301Z,5.86
2023-01-07T03:10:19.834Z,5.85
2023-01-07T03:12:56.655Z,5.84
2023-01-07T03:15:33.777Z,5.83
2023-01-07T03:18:10.438Z,5.79
2023-01-07T03:20:45.523Z,5.73
2023-01-07T03:23:22.911Z,5.63
2023-01-07T03:25:56.999Z,5.54
2023-01-07T03:28:33.214Z,5.45
2023-01-07T03:31:07.077Z,5.35
2023-01-07T03:33:45.464Z,5.25
2023-01-07T03:36:21.510Z,5.11
2023-01-07T03:38:56.114Z,4.98
2023-01-07T03:41:45.610Z,4.87
2023-01-07T03:44:17.415Z,4.77
2023-01-07T03:46:49.615Z,4.73
2023-01-07T03:49:21.462Z,4.69
2023-01-07T03:51:54.757Z,4.65
2023-01-07T03:54:26.732Z,4.61
2023-01-07T03:56:58.487Z,4.57
2023-01-07T03:59:30.294Z,4.52
2023-01-07T04:02:02.300Z,4.48
2023-01-07T04:04:34.281Z,4.43
2023-01-07T04:07:06.070Z,4.37
2023-01-07T04:09:38.035Z,4.31
2023-01-07T04:12:10.343Z,4.21
2023-01-07T04:14:42.522Z,4.10
2023-01-07T04:17:14.471Z,4.02
2023-01-07T04:19:46.619Z,3.94
2023-01-07T04:22:18.263Z,3.85
2023-01-07T04:24:50.012Z,3.74
2023-01-07T04:27:22.201Z,3.71
2023-01-07T04:29:54.245Z,3.68
2023-01-07T04:32:26.076Z,3.69
2023-01-07T04:34:57.965Z,3.70
2023-01-07T04:37:29.834Z,3.69
2023-01-07T04:40:01.554Z,3.64
2023-01-07T04:42:33.332Z,3.59
2023-01-07T04:45:05.719Z,3.60
2023-01-07T04:47:37.469Z,3.57
2023-01-07T04:50:10.975Z,3.53
2023-01-07T04:52:41.220Z,3.47
2023-01-07T04:55:13.364Z,3.42
2023-01-07T04:57:45.648Z,3.36
2023-01-07T05:00:18.175Z,3.31
2023-01-07T05:02:50.045Z,3.27
2023-01-07T05:05:22.351Z,3.26
2023-01-07T05:07:54.521Z,3.25
2023-01-07T05:10:26.482Z,3.26
2023-01-07T05:12:58.243Z,3.29
2023-01-07T05:15:30.010Z,3.34
2023-01-07T05:18:01.833Z,3.42
2023-01-07T05:20:33.702Z,3.52
2023-01-07T05:23:06.766Z,3.62
2023-01-07T05:25:38.509Z,3.70
2023-01-07T05:28:11.978Z,3.80
2023-01-07T05:30:42.645Z,3.82
2023-01-07T05:33:14.491Z,3.86
2023-01-07T05:35:48.348Z,3.91
2023-01-07T05:38:20.256Z,3.92
2023-01-07T05:40:52.124Z,3.93
2023-01-07T05:43:24.389Z,3.95
2023-01-07T05:45:57.510Z,3.96
2023-01-07T05:48:29.393Z,3.97
2023-01-07T05:51:01.225Z,3.97
2023-01-07T05:53:32.964Z,3.96
2023-01-07T05:56:05.098Z,3.98
2023-01-07T05:58:37.113Z,4.03
2023-01-07T06:01:09.063Z,4.09
2023-01-07T06:03:41.169Z,4.15
2023-01-07T06:06:12.941Z,4.19
2023-01-07T06:08:44.747Z,4.21
2023-01-07T06:11:18.568Z,4.24
2023-01-07T06:13:50.319Z,4.29
2023-01-07T06:16:22.168Z,4.34
2023-01-07T06:18:54.027Z,4.30
2023-01-07T06:21:26.017Z,4.24
2023-01-07T06:23:58.084Z,4.25
2023-01-07T06:26:29.919Z,4.25
2023-01-07T06:29:01.994Z,4.24
2023-01-07T06:31:34.089Z,4.13
2023-01-07T06:34:06.022Z,4.09
2023-01-07T06:36:37.948Z,4.11
2023-01-07T06:39:10.626Z,4.13
2023-01-07T06:41:42.318Z,4.14
2023-01-07T06:44:14.195Z,4.15
2023-01-07T06:46:46.083Z,4.16
2023-01-07T06:49:17.835Z,4.19
2023-01-07T06:51:49.645Z,4.20
2023-01-07T06:54:21.313Z,4.12
2023-01-07T06:56:53.364Z,3.99
2023-01-07T06:59:25.355Z,3.97
2023-01-07T07:01:57.289Z,3.96
2023-01-07T07:04:29.114Z,3.95
2023-01-07T07:07:00.948Z,3.96
2023-01-07T07:09:32.700Z,3.96
2023-01-07T07:12:04.915Z,3.93
2023-01-07T07:14:36.900Z,3.83
2023-01-07T07:17:09.030Z,3.80
2023-01-07T07:19:40.818Z,3.90
2023-01-07T07:22:12.648Z,4.01
2023-01-07T07:24:44.487Z,4.12
2023-01-07T07:27:16.455Z,4.21
2023-01-07T07:29:48.225Z,4.32
2023-01-07T07:32:19.977Z,4.38
2023-01-07T07:34:51.682Z,4.46
2023-01-07T07:37:23.835Z,4.50
2023-01-07T07:39:55.647Z,4.51
2023-01-07T07:42:27.501Z,4.48
2023-01-07T07:44:59.300Z,4.48
2023-01-07T07:47:31.094Z,4.50
2023-01-07T07:50:02.925Z,4.49
2023-01-07T07:52:36.846Z,4.51
2023-01-07T07:55:20.207Z,4.54
2023-01-07T07:57:55.863Z,4.53
2023-01-07T08:00:27.955Z,4.50
2023-01-07T08:03:01.893Z,4.51
2023-01-07T08:05:33.857Z,4.57
2023-01-07T08:08:06.287Z,4.61
2023-01-07T08:10:38.404Z,4.67
2023-01-07T08:13:10.989Z,4.77
2023-01-07T08:15:42.747Z,4.88
2023-01-07T08:18:14.482Z,4.97
2023-01-07T08:20:46.296Z,5.04
2023-01-07T08:23:18.063Z,5.08
2023-01-07T08:25:50.121Z,5.12
2023-01-07T08:28:21.877Z,5.15
2023-01-07T08:30:53.714Z,5.17
2023-01-07T08:33:25.563Z,5.18
2023-01-07T08:35:57.335Z,5.23
2023-01-07T08:38:31.511Z,5.28
2023-01-07T08:41:04.303Z,5.39
2023-01-07T08:43:36.239Z,5.61
2023-01-07T08:46:08.406Z,5.90
2023-01-07T08:48:40.269Z,6.19
2023-01-07T08:51:12.172Z,6.47
2023-01-07T08:53:43.879Z,6.73
2023-01-07T08:56:15.806Z,6.97
2023-01-07T08:58:48.585Z,7.22
2023-01-07T09:01:20.492Z,7.50
2023-01-07T09:03:52.627Z,7.66
2023-01-07T09:06:24.509Z,7.69
2023-01-07T09:08:56.352Z,7.68
2023-01-07T09:11:28.315Z,7.66
2023-01-07T09:14:00.275Z,7.66
2023-01-07T09:16:32.062Z,7.66
2023-01-07T09:19:04.109Z,7.64
2023-01-07T09:21:35.871Z,7.69
2023-01-07T09:24:08.559Z,7.81
2023-01-07T09:26:40.407Z,7.93
2023-01-07T09:29:12.433Z,8.05
2023-01-07T09:31:44.312Z,8.19
2023-01-07T09:34:16.389Z,8.32
2023-01-07T09:36:48.342Z,8.49
2023-01-07T09:39:20.117Z,8.82
2023-01-07T09:42:02.003Z,9.10
2023-01-07T09:44:50.342Z,9.25
2023-01-07T09:47:25.906Z,9.30
2023-01-07T09:50:05.988Z,9.34
2023-01-07T09:52:42.754Z,9.33
2023-01-07T09:55:25.282Z,9.27
2023-01-07T09:57:57.209Z,9.19
2023-01-07T10:00:30.788Z,9.14
2023-01-07T10:03:18.671Z,9.09
2023-01-07T10:06:02.216Z,9.06
2023-01-07T10:08:46.948Z,8.99
2023-01-07T10:11:33.047Z,8.93
2023-01-07T10:14:33.908Z,8.89
2023-01-07T10:17:15.893Z,8.86
2023-01-07T10:21:57.133Z,8.93
2023-01-07T10:24:33.424Z,8.89
2023-01-07T10:27:11.093Z,8.88
2023-01-07T10:29:48.933Z,8.88
2023-01-07T10:32:23.782Z,8.90
2023-01-07T10:35:00.130Z,8.93
2023-01-07T10:37:34.112Z,9.02
2023-01-07T10:40:26.230Z,9.11
2023-01-07T10:43:05.359Z,9.20
2023-01-07T10:45:59.124Z,9.30
2023-01-07T10:48:44.972Z,9.35
2023-01-07T10:51:39.902Z,9.38
2023-01-07T10:54:26.249Z,9.38
2023-01-07T10:57:02.487Z,9.39
2023-01-07T10:59:34.492Z,9.41
2023-01-07T11:02:16.041Z,9.42
2023-01-07T11:04:48.436Z,9.48
2023-01-07T11:07:43.457Z,9.53
2023-01-07T11:10:20.935Z,9.49
2023-01-07T11:12:55.282Z,9.39
2023-01-07T11:15:31.540Z,9.33
2023-01-07T11:18:06.658Z,9.33
2023-01-07T11:20:55.357Z,9.36
2023-01-07T11:23:38.701Z,9.34
2023-01-07T11:26:17.362Z,9.34
2023-01-07T11:28:57.884Z,9.37
2023-01-07T11:31:49.628Z,9.38
2023-01-07T11:34:26.909Z,9.35
2023-01-07T11:36:59.104Z,9.35
2023-01-07T11:39:32.980Z,9.35
2023-01-07T11:42:35.583Z,9.30
2023-01-07T11:45:19.039Z,9.29
2023-01-07T11:47:57.680Z,9.24
2023-01-07T11:50:35.769Z,9.16
2023-01-07T11:53:22.547Z,9.09
2023-01-07T11:56:02.956Z,9.09
2023-01-07T11:58:36.307Z,9.12
2023-01-07T12:01:19.177Z,9.13
2023-01-07T12:06:58.633Z,9.18
2023-01-07T12:09:41.928Z,9.09
2023-01-07T12:12:37.142Z,9.04
2023-01-07T12:15:21.021Z,9.03
2023-01-07T12:18:09.429Z,9.08
2023-01-07T12:21:02.892Z,9.18
2023-01-07T12:23:43.154Z,9.28
2023-01-07T12:26:20.223Z,9.37
2023-01-07T12:29:07.177Z,9.43
2023-01-07T12:31:48.804Z,9.46
2023-01-07T12:34:35.711Z,9.44
2023-01-07T12:37:21.712Z,9.42
2023-01-07T12:39:59.216Z,9.39
2023-01-07T12:42:37.000Z,9.41
2023-01-07T12:45:20.286Z,9.40
2023-01-07T12:47:59.431Z,9.43
2023-01-07T12:50:36.515Z,9.42
2023-01-07T12:53:17.969Z,9.39
2023-01-07T12:58:13.180Z,9.40
2023-01-07T13:00:51.245Z,9.34
2023-01-07T13:03:35.892Z,9.25
2023-01-07T13:06:15.511Z,9.16
2023-01-07T13:08:52.918Z,9.16
2023-01-07T13:11:45.420Z,9.20
2023-01-07T13:14:25.218Z,9.23
2023-01-07T13:17:12.484Z,9.23
2023-01-07T13:19:44.298Z,9.20
2023-01-07T13:22:26.429Z,9.18
2023-01-07T13:26:40.790Z,9.11
2023-01-07T13:29:23.733Z,9.03
2023-01-07T13:32:16.666Z,9.01
2023-01-07T13:36:28.208Z,9.07
2023-01-07T13:40:37.982Z,9.12
2023-01-07T13:45:21.389Z,9.16
2023-01-07T13:47:56.755Z,9.13
2023-01-07T13:50:36.474Z,9.12
2023-01-07T13:53:29.059Z,9.08
2023-01-07T13:56:59.598Z,9.04
2023-01-07T14:02:51.760Z,8.94
2023-01-07T14:06:42.577Z,8.90
2023-01-07T14:09:37.106Z,8.88
2023-01-07T14:12:24.725Z,8.90
2023-01-07T14:15:12.481Z,8.92
2023-01-07T14:17:55.738Z,8.84
2023-01-07T14:24:58.960Z,8.73
2023-01-07T14:28:33.988Z,8.66
2023-01-07T14:31:06.429Z,8.60
2023-01-07T14:33:41.582Z,8.56
2023-01-07T14:39:30.569Z,8.43
2023-01-07T14:42:52.106Z,8.35
2023-01-07T14:45:55.346Z,8.33
2023-01-07T14:48:38.523Z,8.34
2023-01-07T14:51:34.422Z,8.35
2023-01-07T14:54:36.091Z,8.36
2023-01-07T14:57:25.654Z,8.36
2023-01-07T15:00:14.253Z,8.32
2023-01-07T15:03:35.393Z,8.24
2023-01-07T15:06:20.874Z,8.04
2023-01-07T15:09:12.568Z,7.92
2023-01-07T15:12:04.317Z,7.79
2023-01-07T15:14:58.469Z,7.67
2023-01-07T15:17:28.711Z,7.55
2023-01-07T15:20:05.175Z,7.49
2023-01-07T15:22:59.647Z,7.39
2023-01-07T15:25:47.147Z,7.30
2023-01-07T15:28:29.509Z,7.23
2023-01-07T15:31:10.090Z,7.20
2023-01-07T15:34:01.139Z,7.17
2023-01-07T15:36:33.942Z,7.15
2023-01-07T15:39:07.370Z,7.14
2023-01-07T15:41:40.934Z,7.13
2023-01-07T15:44:21.711Z,7.10
2023-01-07T15:46:53.735Z,7.06
2023-01-07T15:49:26.584Z,7.00
2023-01-07T15:52:00.146Z,6.92
2023-01-07T15:54:35.544Z,6.84
2023-01-07T15:57:11.508Z,6.75
2023-01-07T15:59:45.865Z,6.66
2023-01-07T16:02:29.173Z,6.57
2023-01-07T16:05:04.598Z,6.48
2023-01-07T16:07:38.767Z,6.36
2023-01-07T16:10:22.374Z,6.26
2023-01-07T16:12:56.041Z,6.16
2023-01-07T16:15:32.797Z,6.05
2023-01-07T16:18:18.920Z,5.99
2023-01-07T16:20:56.304Z,5.95
2023-01-07T16:23:30.510Z,5.91
2023-01-07T16:26:06.927Z,5.86
2023-01-07T16:28:42.802Z,5.86
2023-01-07T16:31:17.978Z,5.84
2023-01-07T16:33:51.959Z,5.82
2023-01-07T16:36:28.310Z,5.79
2023-01-07T16:39:05.346Z,5.72
2023-01-07T16:41:37.973Z,5.65
2023-01-07T16:44:58.943Z,5.51
2023-01-07T16:47:32.809Z,5.28
2023-01-07T16:50:38.643Z,5.13
2023-01-07T16:53:26.390Z,4.96
2023-01-07T16:59:53.690Z,4.65
2023-01-07T17:02:32.249Z,4.46
2023-01-07T17:05:19.522Z,4.33
2023-01-07T17:07:54.674Z,4.25
2023-01-07T17:10:29.800Z,4.22
2023-01-07T17:13:04.171Z,4.19
2023-01-07T17:15:40.422Z,4.18
2023-01-07T17:18:31.661Z,4.17
2023-01-07T17:21:03.998Z,4.16
2023-01-07T17:23:45.432Z,4.14
2023-01-07T17:26:22.703Z,4.09
2023-01-07T17:28:57.314Z,4.06
2023-01-07T17:31:29.630Z,3.98
2023-01-07T17:34:01.412Z,3.92
2023-01-07T17:36:35.280Z,3.85
2023-01-07T17:39:07.200Z,3.78
2023-01-07T17:41:57.390Z,3.70
2023-01-07T17:44:29.132Z,3.61
2023-01-07T17:47:00.860Z,3.53
2023-01-07T17:49:32.531Z,3.41
2023-01-07T17:52:04.605Z,3.28
2023-01-07T17:54:36.779Z,3.15
2023-01-07T17:57:09.284Z,3.08
2023-01-07T17:59:47.469Z,3.04
2023-01-07T18:02:24.593Z,3.03
2023-01-07T18:04:57.755Z,3.03
2023-01-07T18:07:29.439Z,3.03
2023-01-07T18:10:01.288Z,3.02
2023-01-07T18:12:34.769Z,3.03
2023-01-07T18:15:14.210Z,3.04
2023-01-07T18:17:46.181Z,3.06
2023-01-07T18:20:19.497Z,3.04
2023-01-07T18:22:51.585Z,2.98
2023-01-07T18:25:24.268Z,2.92
2023-01-07T18:27:56.805Z,2.83
2023-01-07T18:30:28.674Z,2.70
2023-01-07T18:33:00.414Z,2.61
2023-01-07T18:35:32.314Z,2.56
2023-01-07T18:38:04.476Z,2.50
2023-01-07T18:40:37.650Z,2.42
2023-01-07T18:43:11.456Z,2.35
2023-01-07T18:45:45.212Z,2.28
2023-01-07T18:48:19.454Z,2.21
2023-01-07T18:50:52.354Z,2.16
2023-01-07T18:53:26.900Z,2.12
2023-01-07T18:56:02.842Z,2.10
2023-01-07T18:58:34.849Z,2.12
2023-01-07T19:01:08.397Z,2.15
2023-01-07T19:03:38.893Z,2.17
2023-01-07T19:06:12.602Z,2.22
2023-01-07T19:08:44.368Z,2.23
2023-01-07T19:11:16.896Z,2.26
2023-01-07T19:13:48.751Z,2.30
2023-01-07T19:16:20.705Z,2.33
2023-01-07T19:18:53.634Z,2.31
2023-01-07T19:21:26.735Z,2.29
2023-01-07T19:23:58.917Z,2.20
2023-01-07T19:26:31.003Z,2.00
2023-01-07T19:29:03.473Z,1.77
2023-01-07T19:31:35.301Z,1.68
2023-01-07T19:34:07.778Z,1.66
2023-01-07T19:36:41.799Z,1.61
2023-01-07T19:39:15.736Z,1.53
2023-01-07T19:41:47.826Z,1.45
2023-01-07T19:44:19.709Z,1.42
2023-01-07T19:46:51.714Z,1.39
2023-01-07T19:49:23.814Z,1.34
2023-01-07T19:51:55.777Z,1.32
2023-01-07T19:54:27.628Z,1.31
2023-01-07T19:56:59.607Z,1.35
2023-01-07T19:59:33.873Z,1.41
2023-01-07T20:02:06.280Z,1.45
2023-01-07T20:04:40.382Z,1.52
2023-01-07T20:07:12.361Z,1.57
2023-01-07T20:09:44.175Z,1.61
2023-01-07T20:12:16.194Z,1.58
2023-01-07T20:14:48.656Z,1.48
2023-01-07T20:17:20.628Z,1.44
2023-01-07T20:19:52.459Z,1.42
2023-01-07T20:22:24.465Z,1.42
2023-01-07T20:24:56.519Z,1.40
2023-01-07T20:27:28.597Z,1.37
2023-01-07T20:30:00.524Z,1.31
2023-01-07T20:32:32.731Z,1.23
2023-01-07T20:35:05.301Z,1.17
2023-01-07T20:37:37.181Z,1.13
2023-01-07T20:40:11.135Z,1.09
2023-01-07T20:42:42.875Z,1.00
2023-01-07T20:45:15.716Z,0.95
2023-01-07T20:47:47.853Z,0.94
2023-01-07T20:50:20.048Z,0.97
2023-01-07T20:52:52.143Z,0.99
2023-01-07T20:55:23.951Z,1.03
2023-01-07T20:57:55.913Z,1.08
2023-01-07T21:00:28.355Z,1.10
2023-01-07T21:03:00.399Z,1.04
2023-01-07T21:05:32.441Z,1.05
2023-01-07T21:08:04.438Z,1.07
2023-01-07T21:10:39.417Z,1.04
2023-01-07T21:13:11.223Z,0.88
2023-01-07T21:15:43.003Z,0.85
2023-01-07T21:18:15.253Z,0.86
2023-01-07T21:20:47.975Z,0.84
2023-01-07T21:23:19.793Z,0.79
2023-01-07T21:25:51.647Z,0.72
2023-01-07T21:28:23.629Z,0.69
2023-01-07T21:30:55.497Z,0.61
2023-01-07T21:33:27.300Z,0.53
2023-01-07T21:35:59.055Z,0.45
2023-01-07T21:38:30.841Z,0.38
2023-01-07T21:41:08.458Z,0.39
2023-01-07T21:43:40.644Z,0.44
2023-01-07T21:46:13.119Z,0.56
2023-01-07T21:48:47.215Z,0.64
2023-01-07T21:51:22.192Z,0.76
2023-01-07T21:53:55.887Z,0.88
2023-01-07T21:56:32.136Z,1.01
2023-01-07T21:59:03.946Z,1.08
2023-01-07T22:01:35.982Z,1.22
2023-01-07T22:04:08.269Z,1.34
2023-01-07T22:06:40.060Z,1.42
2023-01-07T22:09:16.645Z,1.43
2023-01-07T22:11:48.531Z,1.43
2023-01-07T22:14:23.119Z,1.45
2023-01-07T22:16:54.919Z,1.45
2023-01-07T22:19:28.447Z,1.45
2023-01-07T22:21:58.600Z,1.43
2023-01-07T22:24:30.353Z,1.46
2023-01-07T22:27:02.344Z,1.45
2023-01-07T22:29:34.370Z,1.40
2023-01-07T22:32:06.632Z,1.39
2023-01-07T22:34:38.522Z,1.41
2023-01-07T22:37:13.741Z,1.46
2023-01-07T22:39:49.884Z,1.53
2023-01-07T22:42:25.510Z,1.59
2023-01-07T22:45:02.373Z,1.70
2023-01-07T22:47:39.428Z,1.78
2023-01-07T22:50:14.508Z,1.88
2023-01-07T22:52:47.051Z,2.01
2023-01-07T22:55:19.064Z,2.12
2023-01-07T22:57:50.876Z,2.16
2023-01-07T23:00:42.930Z,2.19
2023-01-07T23:03:14.632Z,2.24
2023-01-07T23:05:46.491Z,2.25
2023-01-07T23:08:18.699Z,2.27
2023-01-07T23:10:50.564Z,2.28
2023-01-07T23:13:22.501Z,2.27
2023-01-07T23:15:54.224Z,2.26
2023-01-07T23:18:25.952Z,2.26
2023-01-07T23:20:58.214Z,2.26
2023-01-07T23:23:31.271Z,2.21
2023-01-07T23:26:03.136Z,2.18
2023-01-07T23:28:34.923Z,2.20
2023-01-07T23:31:07.270Z,2.24
2023-01-07T23:33:39.078Z,2.30
2023-01-07T23:36:12.731Z,2.34
2023-01-07T23:38:44.898Z,2.41
2023-01-07T23:41:16.962Z,2.48
2023-01-07T23:43:49.392Z,2.56
2023-01-07T23:46:21.218Z,2.63
2023-01-07T23:48:53.053Z,2.68
2023-01-07T23:51:25.084Z,2.68
2023-01-07T23:53:56.928Z,2.73
2023-01-07T23:56:28.849Z,2.74
2023-01-07T23:59:02.888Z,2.77
